Time;durP1;ratioP1;P1;durP2;ratioP2;P2;SDS_P1;SDS_P2;PMS_P1;PMS_P2;Temp;Humidity;BMP_temperature;BMP_pressure;BME280_temperature;BME280_humidity;BME280_pressure;Samples;Min_cycle;Max_cycle;Signal;HPM_P1;HPM_P2
2023/01/09 00:01:50;;;;;;;;;;;;;;;;;;4981071;28;3449;-52
2023/01/09 00:04:16;;;;;;;;;;;;;;;;;;4980767;28;4508;-46
2023/01/09 00:06:42;;;;;;;;;;;;;;;;;;4980211;28;4491;-46
2023/01/09 00:09:07;;;;;;;;;;;;;;;;;;4980676;28;5207;-50
2023/01/09 00:11:32;;;;;;;;;;;;;;;;;;4977447;28;5248;-52
2023/01/09 00:13:58;;;;;;;;;;;;;;;;;;4974509;28;3403;-46
2023/01/09 00:16:23;;;;;;;;;;;;;;;;;;4976151;28;5037;-47
2023/01/09 00:18:48;;;;;;;;;;;;;;;;;;4974121;28;5372;-54
2023/01/09 00:21:14;;;;;;;;;;;;;;;;;;4980381;28;4681;-46
2023/01/09 00:23:39;;;;;;;;;;;;;;;;;;4978134;28;4515;-46
2023/01/09 00:26:06;;;;;;;;;;;;;;;;;;4986224;28;3322;-49
2023/01/09 00:28:31;;;;;;;;;;;;;;;;;;4985002;28;4504;-46
2023/01/09 00:30:57;;;;;;;;;;;;;;;;;;4982779;28;4994;-49
2023/01/09 00:33:24;;;;;;;;;;;;;;;;;;4983576;28;4775;-48
2023/01/09 00:35:49;;;;;;;;;;;;;;;;;;4983096;28;5182;-48
2023/01/09 00:38:15;;;;;;;;;;;;;;;;;;4979398;28;3301;-48
2023/01/09 00:40:40;;;;;;;;;;;;;;;;;;4981082;28;5005;-45
2023/01/09 00:43:05;;;;;;;;;;;;;;;;;;4979175;28;5037;-46
2023/01/09 00:45:30;;;;;;;;;;;;;;;;;;4980152;28;4484;-46
2023/01/09 00:47:57;;;;;;;;;;;;;;;;;;4983034;28;5097;-49
2023/01/09 00:50:24;;;;;;;;;;;;;;;;;;4983990;28;4931;-51
2023/01/09 00:52:49;;;;;;;;;;;;;;;;;;4976486;28;3423;-46
2023/01/09 00:55:14;;;;;;;;;;;;;;;;;;4974365;28;4571;-46
2023/01/09 00:57:40;;;;;;;;;;;;;;;;;;4983622;28;5193;-49
2023/01/09 01:00:06;;;;;;;;;;;;;;;;;;4977755;28;5277;-49
2023/01/09 01:02:31;;;;;;;;;;;;;;;;;;4982502;28;5077;-50
2023/01/09 01:07:41;;;;;;;;;;;;;;;;;;4979323;28;4429;-47
2023/01/09 01:10:07;;;;;;;;;;;;;;;;;;4985045;28;4998;-47
2023/01/09 01:12:32;;;;;;;;;;;;;;;;;;4982037;28;5222;-46
2023/01/09 01:14:58;;;;;;;;;;;;;;;;;;4978103;28;4675;-53
2023/01/09 01:17:23;;;;;;;;;;;;;;;;;;4980034;28;4981;-49
2023/01/09 01:19:48;;;;;;;;;;;;;;;;;;4986815;28;4377;-46
2023/01/09 01:22:13;;;;;;;;;;;;;;;;;;4983788;28;4867;-49
2023/01/09 01:24:39;;;;;;;;;;;;;;;;;;4984936;28;5089;-48
2023/01/09 01:27:04;;;;;;;;;;;;;;;;;;4974159;28;4918;-48
2023/01/09 01:29:29;;;;;;;;;;;;;;;;;;4980854;28;5028;-53
2023/01/09 01:31:54;;;;;;;;;;;;;;;;;;4965630;28;3336;-48
2023/01/09 01:34:20;;;;;;;;;;;;;;;;;;4983756;28;4874;-47
2023/01/09 01:36:45;;;;;;;;;;;;;;;;;;4978781;28;5144;-54
2023/01/09 01:39:10;;;;;;;;;;;;;;;;;;4978836;28;5359;-48
2023/01/09 01:41:36;;;;;;;;;;;;;;;;;;4978403;28;5012;-46
2023/01/09 01:44:02;;;;;;;;;;;;;;;;;;4978142;28;3605;-47
2023/01/09 01:46:27;;;;;;;;;;;;;;;;;;4978983;28;5056;-49
2023/01/09 01:48:55;;;;;;;;;;;;;;;;;;4975635;28;4882;-49
2023/01/09 01:51:20;;;;;;;;;;;;;;;;;;4979038;28;4520;-48
2023/01/09 01:53:48;;;;;;;;;;;;;;;;;;4972275;28;5145;-48
2023/01/09 01:56:13;;;;;;;;;;;;;;;;;;4985558;28;3238;-53
2023/01/09 01:58:45;;;;;;;;;;;;;;;;;;4983748;28;4884;-47
2023/01/09 02:01:10;;;;;;;;;;;;;;;;;;4984291;28;5095;-48
2023/01/09 02:03:36;;;;;;;;;;;;;;;;;;4980093;28;4547;-48
2023/01/09 02:06:03;;;;;;;;;;;;;;;;;;4984170;28;5122;-46
2023/01/09 02:08:28;;;;;;;;;;;;;;;;;;4979085;28;5050;-49
2023/01/09 02:10:53;;;;;;;;;;;;;;;;;;4983128;28;3400;-49
2023/01/09 02:13:18;;;;;;;;;;;;;;;;;;4982601;28;5177;-52
2023/01/09 02:15:48;;;;;;;;;;;;;;;;;;4979221;28;4999;-51
2023/01/09 02:18:26;;;;;;;;;;;;;;;;;;4980622;28;4572;-50
2023/01/09 02:21:10;;;;;;;;;;;;;;;;;;4981498;28;5115;-49
2023/01/09 02:23:45;;;;;;;;;;;;;;;;;;4981202;28;4493;-48
2023/01/09 02:26:16;;;;;;;;;;;;;;;;;;4985582;28;3462;-49
2023/01/09 02:28:47;;;;;;;;;;;;;;;;;;4982354;28;4837;-50
2023/01/09 02:31:14;;;;;;;;;;;;;;;;;;4986042;28;5110;-52
2023/01/09 02:33:42;;;;;;;;;;;;;;;;;;5003672;28;4553;-47
2023/01/09 02:36:13;;;;;;;;;;;;;;;;;;4981399;28;5039;-49
2023/01/09 02:38:38;;;;;;;;;;;;;;;;;;4983363;28;4640;-49
2023/01/09 02:41:06;;;;;;;;;;;;;;;;;;4989127;28;3614;-48
2023/01/09 02:43:32;;;;;;;;;;;;;;;;;;4980854;28;5001;-53
2023/01/09 02:45:57;;;;;;;;;;;;;;;;;;4979379;28;5134;-46
2023/01/09 02:48:22;;;;;;;;;;;;;;;;;;4989817;28;4966;-46
2023/01/09 02:50:47;;;;;;;;;;;;;;;;;;5003259;28;5170;-47
2023/01/09 02:53:31;;;;;;;;;;;;;;;;;;5007107;28;3560;-49
2023/01/09 02:56:15;;;;;;;;;;;;;;;;;;5003955;28;5114;-50
2023/01/09 02:58:53;;;;;;;;;;;;;;;;;;5005390;28;4840;-51
2023/01/09 03:01:27;;;;;;;;;;;;;;;;;;5000471;28;5094;-56
2023/01/09 03:04:02;;;;;;;;;;;;;;;;;;4995633;28;5076;-47
2023/01/09 03:06:30;;;;;;;;;;;;;;;;;;5003292;28;4511;-46
2023/01/09 03:08:55;;;;;;;;;;;;;;;;;;5006917;28;4900;-50
2023/01/09 03:11:20;;;;;;;;;;;;;;;;;;5007813;28;4873;-51
2023/01/09 03:13:48;;;;;;;;;;;;;;;;;;5006014;28;3759;-50
2023/01/09 03:16:15;;;;;;;;;;;;;;;;;;5004161;28;5054;-47
2023/01/09 03:18:41;;;;;;;;;;;;;;;;;;5003850;28;4928;-50
2023/01/09 03:21:06;;;;;;;;;;;;;;;;;;5000879;28;4619;-50
2023/01/09 03:23:44;;;;;;;;;;;;;;;;;;5005277;28;4894;-46
2023/01/09 03:26:09;;;;;;;;;;;;;;;;;;5006946;28;3248;-47
2023/01/09 03:28:35;;;;;;;;;;;;;;;;;;4998714;28;5188;-47
2023/01/09 03:31:00;;;;;;;;;;;;;;;;;;5004190;28;5094;-47
2023/01/09 03:33:25;;;;;;;;;;;;;;;;;;4990262;28;5090;-50
2023/01/09 03:35:50;;;;;;;;;;;;;;;;;;4999131;28;4888;-49
2023/01/09 03:38:16;;;;;;;;;;;;;;;;;;5010141;28;1102;-47
2023/01/09 03:40:42;;;;;;;;;;;;;;;;;;5005984;28;4834;-47
2023/01/09 03:43:07;;;;;;;;;;;;;;;;;;5006985;28;4487;-49
2023/01/09 03:45:33;;;;;;;;;;;;;;;;;;5006797;28;5255;-48
2023/01/09 03:47:58;;;;;;;;;;;;;;;;;;5005489;28;5218;-46
2023/01/09 03:50:23;;;;;;;;;;;;;;;;;;5006945;28;5201;-49
2023/01/09 03:52:48;;;;;;;;;;;;;;;;;;5004832;28;3217;-54
2023/01/09 03:55:14;;;;;;;;;;;;;;;;;;5001494;28;4617;-46
2023/01/09 03:57:39;;;;;;;;;;;;;;;;;;5007605;28;4725;-50
2023/01/09 04:00:04;;;;;;;;;;;;;;;;;;5000085;28;5037;-47
2023/01/09 04:02:30;;;;;;;;;;;;;;;;;;5000642;28;4678;-47
2023/01/09 04:04:55;;;;;;;;;;;;;;;;;;5006388;28;3434;-46
2023/01/09 04:07:20;;;;;;;;;;;;;;;;;;5002529;28;5158;-50
2023/01/09 04:09:46;;;;;;;;;;;;;;;;;;4997756;28;4546;-51
2023/01/09 04:12:11;;;;;;;;;;;;;;;;;;4999649;28;5284;-46
2023/01/09 04:14:36;;;;;;;;;;;;;;;;;;5000570;28;5195;-52
2023/01/09 04:17:01;;;;;;;;;;;;;;;;;;4998820;28;3567;-47
2023/01/09 04:19:27;;;;;;;;;;;;;;;;;;5000462;28;5051;-54
2023/01/09 04:21:52;;;;;;;;;;;;;;;;;;5003244;28;5060;-50
2023/01/09 04:24:17;;;;;;;;;;;;;;;;;;4998273;28;4749;-49
2023/01/09 04:26:42;;;;;;;;;;;;;;;;;;4999962;28;5263;-49
2023/01/09 04:29:08;;;;;;;;;;;;;;;;;;5009049;28;1664;-47
2023/01/09 04:31:33;;;;;;;;;;;;;;;;;;5004369;28;5069;-49
2023/01/09 04:33:58;;;;;;;;;;;;;;;;;;5003929;28;5087;-47
2023/01/09 04:36:23;;;;;;;;;;;;;;;;;;5002229;28;5058;-46
2023/01/09 04:38:49;;;;;;;;;;;;;;;;;;4998477;28;4631;-53
2023/01/09 04:41:47;;;;;;;;;;;;;;;;;;4977776;28;3402;-51
2023/01/09 04:43:59;;;;;;;;;;;;;;;;;;4982313;28;4669;-51
2023/01/09 04:46:24;;;;;;;;;;;;;;;;;;4981108;28;4526;-50
2023/01/09 04:48:49;;;;;;;;;;;;;;;;;;4979274;28;5084;-47
2023/01/09 04:51:15;;;;;;;;;;;;;;;;;;4981790;28;5103;-46
2023/01/09 04:53:40;;;;;;;;;;;;;;;;;;4979949;28;4581;-46
2023/01/09 04:56:05;;;;;;;;;;;;;;;;;;4987277;28;3230;-48
2023/01/09 04:58:31;;;;;;;;;;;;;;;;;;4997574;28;5018;-48
2023/01/09 05:00:56;;;;;;;;;;;;;;;;;;4996640;28;5030;-47
2023/01/09 05:03:21;;;;;;;;;;;;;;;;;;4981198;28;4561;-50
2023/01/09 05:05:46;;;;;;;;;;;;;;;;;;4978641;28;5058;-50
2023/01/09 05:08:12;;;;;;;;;;;;;;;;;;4981541;28;4170;-56
2023/01/09 05:10:37;;;;;;;;;;;;;;;;;;4982133;28;4994;-47
2023/01/09 05:13:02;;;;;;;;;;;;;;;;;;4993707;28;5667;-49
2023/01/09 05:15:29;;;;;;;;;;;;;;;;;;4982679;28;4681;-47
2023/01/09 05:17:55;;;;;;;;;;;;;;;;;;4979370;28;4715;-49
2023/01/09 05:20:20;;;;;;;;;;;;;;;;;;4979250;28;5241;-51
2023/01/09 05:22:45;;;;;;;;;;;;;;;;;;4978372;28;3601;-51
2023/01/09 05:25:10;;;;;;;;;;;;;;;;;;4984223;28;5050;-48
2023/01/09 05:27:36;;;;;;;;;;;;;;;;;;4992344;28;5317;-46
2023/01/09 05:30:01;;;;;;;;;;;;;;;;;;5003754;28;5140;-46
2023/01/09 05:32:26;;;;;;;;;;;;;;;;;;4985273;28;5182;-48
2023/01/09 05:34:51;;;;;;;;;;;;;;;;;;4983776;28;3563;-51
2023/01/09 05:37:17;;;;;;;;;;;;;;;;;;4998082;28;4757;-50
2023/01/09 05:39:42;;;;;;;;;;;;;;;;;;5005268;28;5069;-53
2023/01/09 05:42:07;;;;;;;;;;;;;;;;;;5004418;28;4581;-47
2023/01/09 05:44:32;;;;;;;;;;;;;;;;;;4997362;28;5277;-49
2023/01/09 05:46:58;;;;;;;;;;;;;;;;;;5005860;28;3418;-48
2023/01/09 05:49:23;;;;;;;;;;;;;;;;;;5001290;28;5019;-46
2023/01/09 05:51:48;;;;;;;;;;;;;;;;;;5002267;28;4495;-46
2023/01/09 05:54:13;;;;;;;;;;;;;;;;;;5004553;28;4564;-51
2023/01/09 05:56:39;;;;;;;;;;;;;;;;;;5001973;28;4688;-49
2023/01/09 05:59:04;;;;;;;;;;;;;;;;;;4999703;28;3510;-50
2023/01/09 06:01:29;;;;;;;;;;;;;;;;;;5001840;28;5042;-50
2023/01/09 06:03:55;;;;;;;;;;;;;;;;;;5006258;28;5418;-46
2023/01/09 06:06:21;;;;;;;;;;;;;;;;;;5002503;28;5037;-51
2023/01/09 06:08:46;;;;;;;;;;;;;;;;;;5002370;28;5029;-49
2023/01/09 06:11:12;;;;;;;;;;;;;;;;;;4997909;28;4163;-50
2023/01/09 06:13:37;;;;;;;;;;;;;;;;;;4996107;28;5239;-49
2023/01/09 06:16:02;;;;;;;;;;;;;;;;;;4998055;28;4892;-47
2023/01/09 06:18:27;;;;;;;;;;;;;;;;;;4997462;28;4517;-47
2023/01/09 06:20:53;;;;;;;;;;;;;;;;;;4994707;28;5351;-48
2023/01/09 06:23:18;;;;;;;;;;;;;;;;;;5002394;28;5051;-46
2023/01/09 06:25:43;;;;;;;;;;;;;;;;;;4999515;28;3307;-47
2023/01/09 06:28:08;;;;;;;;;;;;;;;;;;4999358;28;5041;-47
2023/01/09 06:30:34;;;;;;;;;;;;;;;;;;4998186;28;4551;-48
2023/01/09 06:32:59;;;;;;;;;;;;;;;;;;4997476;28;4622;-48
2023/01/09 06:35:24;;;;;;;;;;;;;;;;;;4997324;28;5222;-60
2023/01/09 06:37:50;;;;;;;;;;;;;;;;;;4998344;28;3567;-59
2023/01/09 06:40:15;;;;;;;;;;;;;;;;;;4992156;28;4783;-60
2023/01/09 06:42:44;;;;;;;;;;;;;;;;;;5002175;28;5623;-56
2023/01/09 06:45:09;;;;;;;;;;;;;;;;;;5002507;28;5065;-60
2023/01/09 06:47:35;;;;;;;;;;;;;;;;;;5000430;28;5302;-60
2023/01/09 06:50:00;;;;;;;;;;;;;;;;;;5002358;28;3394;-60
2023/01/09 06:52:25;;;;;;;;;;;;;;;;;;5002384;28;4850;-59
2023/01/09 06:54:50;;;;;;;;;;;;;;;;;;5000813;28;5139;-59
2023/01/09 06:57:16;;;;;;;;;;;;;;;;;;5005674;28;5330;-59
2023/01/09 06:59:41;;;;;;;;;;;;;;;;;;4996850;28;5253;-60
2023/01/09 07:02:09;;;;;;;;;;;;;;;;;;5007996;28;3491;-59
2023/01/09 07:04:35;;;;;;;;;;;;;;;;;;5004632;28;4733;-60
2023/01/09 07:07:00;;;;;;;;;;;;;;;;;;5003445;28;5137;-60
2023/01/09 07:09:25;;;;;;;;;;;;;;;;;;5003938;28;4616;-59
2023/01/09 07:11:50;;;;;;;;;;;;;;;;;;5001480;28;4656;-59
2023/01/09 07:14:16;;;;;;;;;;;;;;;;;;5001310;28;3151;-59
2023/01/09 07:16:41;;;;;;;;;;;;;;;;;;5003831;28;5111;-58
2023/01/09 07:19:06;;;;;;;;;;;;;;;;;;5004710;28;4489;-56
2023/01/09 07:21:32;;;;;;;;;;;;;;;;;;5007918;28;5055;-60
2023/01/09 07:23:57;;;;;;;;;;;;;;;;;;5006047;28;5035;-60
2023/01/09 07:26:22;;;;;;;;;;;;;;;;;;5007299;28;5122;-60
2023/01/09 07:28:47;;;;;;;;;;;;;;;;;;5000285;28;3460;-60
2023/01/09 07:31:13;;;;;;;;;;;;;;;;;;5005266;28;5100;-61
2023/01/09 07:33:39;;;;;;;;;;;;;;;;;;4999912;28;4814;-61
2023/01/09 07:36:04;;;;;;;;;;;;;;;;;;5000359;28;5191;-60
2023/01/09 07:38:30;;;;;;;;;;;;;;;;;;5011888;28;4663;-62
2023/01/09 07:40:56;;;;;;;;;;;;;;;;;;5008490;28;3888;-61
2023/01/09 07:43:21;;;;;;;;;;;;;;;;;;5006577;28;4819;-63
2023/01/09 07:45:46;;;;;;;;;;;;;;;;;;5003203;28;4542;-63
2023/01/09 07:48:11;;;;;;;;;;;;;;;;;;5006734;28;4711;-62
2023/01/09 07:50:37;;;;;;;;;;;;;;;;;;5004515;28;5522;-61
2023/01/09 07:53:02;;;;;;;;;;;;;;;;;;5010726;28;1231;-61
2023/01/09 07:55:27;;;;;;;;;;;;;;;;;;4984996;28;4472;-64
2023/01/09 07:57:53;;;;;;;;;;;;;;;;;;5006283;28;4576;-62
2023/01/09 08:00:19;;;;;;;;;;;;;;;;;;5001169;28;5102;-57
2023/01/09 08:02:45;;;;;;;;;;;;;;;;;;5003499;28;4709;-58
2023/01/09 08:05:13;;;;;;;;;;;;;;;;;;5007766;28;3535;-58
2023/01/09 08:07:39;;;;;;;;;;;;;;;;;;5004582;28;5414;-58
2023/01/09 08:10:04;;;;;;;;;;;;;;;;;;5007783;28;4659;-60
2023/01/09 08:12:29;;;;;;;;;;;;;;;;;;5001048;28;4510;-59
2023/01/09 08:14:55;;;;;;;;;;;;;;;;;;4995721;28;4940;-59
2023/01/09 08:17:20;;;;;;;;;;;;;;;;;;4985401;28;4496;-60
2023/01/09 08:19:45;;;;;;;;;;;;;;;;;;4986321;28;4325;-61
2023/01/09 08:22:10;;;;;;;;;;;;;;;;;;5000441;28;5033;-60
2023/01/09 08:24:35;;;;;;;;;;;;;;;;;;4992325;28;4689;-59
2023/01/09 08:27:01;;;;;;;;;;;;;;;;;;4987448;28;5216;-60
2023/01/09 08:29:26;;;;;;;;;;;;;;;;;;4982186;28;4583;-60
2023/01/09 08:31:52;;;;;;;;;;;;;;;;;;4984566;28;3530;-60
2023/01/09 08:34:17;;;;;;;;;;;;;;;;;;5003987;28;4915;-62
2023/01/09 08:36:42;;;;;;;;;;;;;;;;;;5003286;28;4613;-62
2023/01/09 08:39:08;;;;;;;;;;;;;;;;;;5011515;28;4899;-61
2023/01/09 08:47:06;;;;;;;;;;;;;;;;;;5003855;28;4769;-63
2023/01/09 08:49:32;;;;;;;;;;;;;;;;;;4987253;28;4663;-63
2023/01/09 08:51:57;;;;;;;;;;;;;;;;;;4996546;28;4597;-63
2023/01/09 08:54:23;;;;;;;;;;;;;;;;;;5006240;28;5216;-63
2023/01/09 08:56:48;;;;;;;;;;;;;;;;;;5002961;28;5197;-64
2023/01/09 08:59:14;;;;;;;;;;;;;;;;;;5007468;28;1393;-64
2023/01/09 09:01:39;;;;;;;;;;;;;;;;;;5004167;28;5039;-66
2023/01/09 09:04:04;;;;;;;;;;;;;;;;;;4990592;28;4989;-59
2023/01/09 09:06:30;;;;;;;;;;;;;;;;;;4999028;28;5032;-60
2023/01/09 09:08:55;;;;;;;;;;;;;;;;;;5000522;28;5273;-58
2023/01/09 09:11:21;;;;;;;;;;;;;;;;;;4983384;28;5103;-59
2023/01/09 09:13:46;;;;;;;;;;;;;;;;;;4983500;28;3490;-59
2023/01/09 09:16:11;;;;;;;;;;;;;;;;;;4988037;28;5224;-59
2023/01/09 09:18:36;;;;;;;;;;;;;;;;;;4999999;28;4728;-59
2023/01/09 09:21:02;;;;;;;;;;;;;;;;;;4998961;28;5139;-60
2023/01/09 09:23:27;;;;;;;;;;;;;;;;;;4982924;28;5305;-59
2023/01/09 09:25:52;;;;;;;;;;;;;;;;;;4980792;28;3378;-59
2023/01/09 09:28:17;;;;;;;;;;;;;;;;;;4979499;28;5280;-59
2023/01/09 09:30:43;;;;;;;;;;;;;;;;;;4989520;28;4632;-59
2023/01/09 09:33:08;;;;;;;;;;;;;;;;;;4968987;28;5206;-59
2023/01/09 09:35:34;;;;;;;;;;;;;;;;;;4944182;28;1210196;-59
2023/01/09 09:38:00;;;;;;;;;;;;;;;;;;4991903;28;1514;-58
2023/01/09 09:40:44;;;;;;;;;;;;;;;;;;4988082;28;5039;-59
2023/01/09 09:46:11;;;;;;;;;;;;;;;;;;4983890;28;5063;-59
2023/01/09 09:48:37;;;;;;;;;;;;;;;;;;4996650;28;4642;-59
2023/01/09 09:51:03;;;;;;;;;;;;;;;;;;4988161;28;4565;-59
2023/01/09 09:53:29;;;;;;;;;;;;;;;;;;4989190;28;4904;-60
2023/01/09 09:55:56;;;;;;;;;;;;;;;;;;4991301;28;1111;-59
2023/01/09 09:58:24;;;;;;;;;;;;;;;;;;4994534;28;4888;-59
2023/01/09 10:00:50;;;;;;;;;;;;;;;;;;4987149;28;4474;-60
2023/01/09 10:03:26;;;;;;;;;;;;;;;;;;4986933;28;4546;-60
2023/01/09 10:05:51;;;;;;;;;;;;;;;;;;4987190;28;5088;-59
2023/01/09 10:08:33;;;;;;;;;;;;;;;;;;4992911;28;1985;-59
2023/01/09 10:10:59;;;;;;;;;;;;;;;;;;4984069;28;5029;-59
2023/01/09 10:16:17;;;;;;;;;;;;;;;;;;4982209;28;4954;-58
2023/01/09 10:18:48;;;;;;;;;;;;;;;;;;4988174;28;5052;-58
2023/01/09 10:21:19;;;;;;;;;;;;;;;;;;4983144;28;5109;-59
2023/01/09 10:23:44;;;;;;;;;;;;;;;;;;4988716;28;5097;-58
2023/01/09 10:26:15;;;;;;;;;;;;;;;;;;4972856;28;3950;-59
2023/01/09 10:28:49;;;;;;;;;;;;;;;;;;4983866;28;4474;-59
2023/01/09 10:31:14;;;;;;;;;;;;;;;;;;4986353;28;4565;-59
2023/01/09 10:33:43;;;;;;;;;;;;;;;;;;4987041;28;4977;-58
2023/01/09 10:36:11;;;;;;;;;;;;;;;;;;4984568;28;4663;-58
2023/01/09 10:38:38;;;;;;;;;;;;;;;;;;4981357;28;5228;-59
2023/01/09 10:41:11;;;;;;;;;;;;;;;;;;4988887;28;1399;-58
2023/01/09 10:43:36;;;;;;;;;;;;;;;;;;4983589;28;5166;-58
2023/01/09 10:46:02;;;;;;;;;;;;;;;;;;4983559;28;4618;-58
2023/01/09 10:48:41;;;;;;;;;;;;;;;;;;4978240;28;5076;-58
2023/01/09 10:51:20;;;;;;;;;;;;;;;;;;4990529;28;4991;-59
2023/01/09 10:53:46;;;;;;;;;;;;;;;;;;4987344;28;4563;-59
2023/01/09 10:56:11;;;;;;;;;;;;;;;;;;4988724;28;1122;-59
2023/01/09 10:58:37;;;;;;;;;;;;;;;;;;4990290;28;4473;-59
2023/01/09 11:01:03;;;;;;;;;;;;;;;;;;4988341;28;5159;-58
2023/01/09 11:03:28;;;;;;;;;;;;;;;;;;4985087;28;5204;-58
2023/01/09 11:05:55;;;;;;;;;;;;;;;;;;4989580;28;5089;-59
2023/01/09 11:08:20;;;;;;;;;;;;;;;;;;4988673;28;5086;-59
2023/01/09 11:10:49;;;;;;;;;;;;;;;;;;4988712;28;3336;-58
2023/01/09 11:13:19;;;;;;;;;;;;;;;;;;4986726;28;5029;-59
2023/01/09 11:15:44;;;;;;;;;;;;;;;;;;4975345;28;4532;-59
2023/01/09 11:18:16;;;;;;;;;;;;;;;;;;4981189;28;4509;-58
2023/01/09 11:20:42;;;;;;;;;;;;;;;;;;4977503;28;4968;-60
2023/01/09 11:23:09;;;;;;;;;;;;;;;;;;4987679;28;1202;-59
2023/01/09 11:25:34;;;;;;;;;;;;;;;;;;4999310;28;4898;-59
2023/01/09 11:28:00;;;;;;;;;;;;;;;;;;4986809;28;4955;-59
2023/01/09 11:30:26;;;;;;;;;;;;;;;;;;4984196;28;4720;-61
2023/01/09 11:32:52;;;;;;;;;;;;;;;;;;4987731;28;5167;-60
2023/01/09 11:35:21;;;;;;;;;;;;;;;;;;4980348;28;3339;-60
2023/01/09 11:37:47;;;;;;;;;;;;;;;;;;4984132;28;4997;-59
2023/01/09 11:40:16;;;;;;;;;;;;;;;;;;4984525;28;5138;-59
2023/01/09 11:42:50;;;;;;;;;;;;;;;;;;4983955;28;5031;-59
2023/01/09 11:45:16;;;;;;;;;;;;;;;;;;4986118;28;5060;-58
2023/01/09 11:47:41;;;;;;;;;;;;;;;;;;4972894;28;5202;-58
2023/01/09 11:50:09;;;;;;;;;;;;;;;;;;4988405;28;3477;-58
2023/01/09 11:52:34;;;;;;;;;;;;;;;;;;4982243;28;4695;-59
2023/01/09 11:55:03;;;;;;;;;;;;;;;;;;4980114;28;4484;-59
2023/01/09 11:57:28;;;;;;;;;;;;;;;;;;4987256;28;4642;-59
2023/01/09 11:59:54;;;;;;;;;;;;;;;;;;4978064;28;4633;-59
2023/01/09 12:02:38;;;;;;;;;;;;;;;;;;4985051;28;4616;-58
2023/01/09 12:05:15;;;;;;;;;;;;;;;;;;4977160;28;3236;-59
2023/01/09 12:07:44;;;;;;;;;;;;;;;;;;4983674;28;4837;-59
2023/01/09 12:10:09;;;;;;;;;;;;;;;;;;4985222;28;4469;-58
2023/01/09 12:12:56;;;;;;;;;;;;;;;;;;4977068;28;4726;-58
2023/01/09 12:15:31;;;;;;;;;;;;;;;;;;4986422;28;5213;-58
2023/01/09 12:18:22;;;;;;;;;;;;;;;;;;4964395;28;4718;-58
2023/01/09 12:20:59;;;;;;;;;;;;;;;;;;4980237;28;5432;-59
2023/01/09 12:23:34;;;;;;;;;;;;;;;;;;4996099;28;5270;-58
2023/01/09 12:25:59;;;;;;;;;;;;;;;;;;4977837;28;3837;-59
2023/01/09 12:28:33;;;;;;;;;;;;;;;;;;4980233;28;4529;-59
2023/01/09 12:31:17;;;;;;;;;;;;;;;;;;4979607;28;5082;-57
2023/01/09 12:33:55;;;;;;;;;;;;;;;;;;4978921;28;5126;-59
2023/01/09 12:36:20;;;;;;;;;;;;;;;;;;4981903;28;5179;-59
2023/01/09 12:38:47;;;;;;;;;;;;;;;;;;4987243;28;4827;-59
2023/01/09 12:41:13;;;;;;;;;;;;;;;;;;4984913;28;3400;-59
2023/01/09 12:43:47;;;;;;;;;;;;;;;;;;4986182;28;4556;-62
2023/01/09 12:46:18;;;;;;;;;;;;;;;;;;4979560;28;4474;-62
2023/01/09 12:48:47;;;;;;;;;;;;;;;;;;4962081;28;5186;-60
2023/01/09 12:51:15;;;;;;;;;;;;;;;;;;4984459;28;5381;-64
2023/01/09 12:53:41;;;;;;;;;;;;;;;;;;4980699;28;4843;-59
2023/01/09 12:56:10;;;;;;;;;;;;;;;;;;4981908;28;3518;-60
2023/01/09 12:58:35;;;;;;;;;;;;;;;;;;4970581;28;5182;-59
2023/01/09 13:01:01;;;;;;;;;;;;;;;;;;4977159;28;4509;-47
2023/01/09 13:03:56;;;;;;;;;;;;;;;;;;4980284;28;5190;-52
2023/01/09 13:06:21;;;;;;;;;;;;;;;;;;4980960;28;4530;-55
2023/01/09 13:08:47;;;;;;;;;;;;;;;;;;4975556;28;5557;-49
2023/01/09 13:11:18;;;;;;;;;;;;;;;;;;4980320;28;3759;-61
2023/01/09 13:13:53;;;;;;;;;;;;;;;;;;4981162;28;4930;-62
2023/01/09 13:16:20;;;;;;;;;;;;;;;;;;4985962;28;5108;-47
2023/01/09 13:18:50;;;;;;;;;;;;;;;;;;4980542;28;5031;-53
2023/01/09 13:21:15;;;;;;;;;;;;;;;;;;4980128;28;4704;-46
2023/01/09 13:23:43;;;;;;;;;;;;;;;;;;4981039;28;5960;-48
2023/01/09 13:26:35;;;;;;;;;;;;;;;;;;4976493;28;3669;-47
2023/01/09 13:29:05;;;;;;;;;;;;;;;;;;4996541;28;4951;-48
2023/01/09 13:31:36;;;;;;;;;;;;;;;;;;4996116;28;5076;-50
2023/01/09 13:34:01;;;;;;;;;;;;;;;;;;4998649;28;4996;-47
2023/01/09 13:36:28;;;;;;;;;;;;;;;;;;4997854;28;4762;-48
2023/01/09 13:38:56;;;;;;;;;;;;;;;;;;4998489;28;4987;-48
2023/01/09 13:44:17;;;;;;;;;;;;;;;;;;4980413;28;3747;-49
2023/01/09 13:46:43;;;;;;;;;;;;;;;;;;4996742;28;4581;-47
2023/01/09 13:49:27;;;;;;;;;;;;;;;;;;4989243;28;5135;-49
2023/01/09 13:51:57;;;;;;;;;;;;;;;;;;4986696;28;5079;-50
2023/01/09 13:54:41;;;;;;;;;;;;;;;;;;4980178;28;4643;-51
2023/01/09 13:57:18;;;;;;;;;;;;;;;;;;4979764;28;4521;-52
2023/01/09 13:59:44;;;;;;;;;;;;;;;;;;4983091;28;5031;-50
2023/01/09 14:02:29;;;;;;;;;;;;;;;;;;4981354;28;3600;-53
2023/01/09 14:04:54;;;;;;;;;;;;;;;;;;5005564;28;4406;-52
2023/01/09 14:07:22;;;;;;;;;;;;;;;;;;4989123;28;4886;-46
2023/01/09 14:09:49;;;;;;;;;;;;;;;;;;4973946;28;4980;-51
2023/01/09 14:12:14;;;;;;;;;;;;;;;;;;4982774;28;5100;-50
2023/01/09 14:14:42;;;;;;;;;;;;;;;;;;4977564;28;5102;-51
2023/01/09 14:17:14;;;;;;;;;;;;;;;;;;4981825;28;3499;-50
2023/01/09 14:19:39;;;;;;;;;;;;;;;;;;4983807;28;5346;-49
2023/01/09 14:22:05;;;;;;;;;;;;;;;;;;4980802;28;4581;-49
2023/01/09 14:24:31;;;;;;;;;;;;;;;;;;4981468;28;4575;-52
2023/01/09 14:26:57;;;;;;;;;;;;;;;;;;4979841;28;5400;-49
2023/01/09 14:29:28;;;;;;;;;;;;;;;;;;4986541;28;4500;-52
2023/01/09 14:32:12;;;;;;;;;;;;;;;;;;4978221;28;3858;-50
2023/01/09 14:34:37;;;;;;;;;;;;;;;;;;4973259;28;5194;-52
2023/01/09 14:37:02;;;;;;;;;;;;;;;;;;4973245;28;4493;-50
2023/01/09 14:39:29;;;;;;;;;;;;;;;;;;4981357;28;5021;-50
2023/01/09 14:42:05;;;;;;;;;;;;;;;;;;5002793;28;4717;-57
2023/01/09 14:44:48;;;;;;;;;;;;;;;;;;4999693;28;4644;-50
2023/01/09 14:47:14;;;;;;;;;;;;;;;;;;4997800;28;3531;-49
2023/01/09 14:49:56;;;;;;;;;;;;;;;;;;4997461;28;5010;-53
2023/01/09 14:52:22;;;;;;;;;;;;;;;;;;4997614;28;5007;-49
2023/01/09 14:54:47;;;;;;;;;;;;;;;;;;5003382;28;5047;-45
2023/01/09 14:57:22;;;;;;;;;;;;;;;;;;4999953;28;4863;-47
2023/01/09 15:00:13;;;;;;;;;;;;;;;;;;5001900;28;4550;-49
2023/01/09 15:02:39;;;;;;;;;;;;;;;;;;4994993;28;4517;-52
2023/01/09 15:05:11;;;;;;;;;;;;;;;;;;5000140;28;3387;-50
2023/01/09 15:07:43;;;;;;;;;;;;;;;;;;5001201;28;4917;-48
2023/01/09 15:10:13;;;;;;;;;;;;;;;;;;4998331;28;5026;-50
2023/01/09 15:12:40;;;;;;;;;;;;;;;;;;5000112;28;5157;-49
2023/01/09 15:15:07;;;;;;;;;;;;;;;;;;5000175;28;5410;-51
2023/01/09 15:17:33;;;;;;;;;;;;;;;;;;4997324;28;4931;-49
2023/01/09 15:19:58;;;;;;;;;;;;;;;;;;5006272;28;4316;-49
2023/01/09 15:22:26;;;;;;;;;;;;;;;;;;5002126;28;5221;-50
2023/01/09 15:24:51;;;;;;;;;;;;;;;;;;4998795;28;4530;-45
2023/01/09 15:27:23;;;;;;;;;;;;;;;;;;4997494;28;4955;-48
2023/01/09 15:29:48;;;;;;;;;;;;;;;;;;5006820;28;4877;-49
2023/01/09 15:32:26;;;;;;;;;;;;;;;;;;5009510;28;1137;-47
2023/01/09 15:34:55;;;;;;;;;;;;;;;;;;5002691;28;5082;-46
2023/01/09 15:37:29;;;;;;;;;;;;;;;;;;4998864;28;4942;-50
2023/01/09 15:39:55;;;;;;;;;;;;;;;;;;5010331;28;5351;-47
2023/01/09 15:45:05;;;;;;;;;;;;;;;;;;5005210;28;4523;-49
2023/01/09 15:47:31;;;;;;;;;;;;;;;;;;5006874;28;5094;-49
2023/01/09 15:49:56;;;;;;;;;;;;;;;;;;5006372;28;3249;-50
2023/01/09 15:52:21;;;;;;;;;;;;;;;;;;4994633;28;5170;-50
2023/01/09 15:54:47;;;;;;;;;;;;;;;;;;5001708;28;5173;-48
2023/01/09 15:57:25;;;;;;;;;;;;;;;;;;5002304;28;5019;-47
2023/01/09 15:59:50;;;;;;;;;;;;;;;;;;5000373;28;5130;-50
2023/01/09 16:05:03;;;;;;;;;;;;;;;;;;5016651;28;4605;-49
2023/01/09 16:07:29;;;;;;;;;;;;;;;;;;5002445;28;4605;-48
2023/01/09 16:09:54;;;;;;;;;;;;;;;;;;5009067;28;4494;-50
2023/01/09 16:12:20;;;;;;;;;;;;;;;;;;5004456;28;4697;-49
2023/01/09 16:14:55;;;;;;;;;;;;;;;;;;5006592;28;5204;-48
2023/01/09 16:17:25;;;;;;;;;;;;;;;;;;5007831;28;4646;-48
2023/01/09 16:19:51;;;;;;;;;;;;;;;;;;5001691;28;4487;-48
2023/01/09 16:22:19;;;;;;;;;;;;;;;;;;5003221;28;5637;-50
2023/01/09 16:24:47;;;;;;;;;;;;;;;;;;5006319;28;4902;-48
2023/01/09 16:27:12;;;;;;;;;;;;;;;;;;4995606;28;5207;-48
2023/01/09 16:29:37;;;;;;;;;;;;;;;;;;4999813;28;5208;-48
2023/01/09 16:32:04;;;;;;;;;;;;;;;;;;5003836;28;3506;-47
2023/01/09 16:34:29;;;;;;;;;;;;;;;;;;5001409;28;5227;-49
2023/01/09 16:36:54;;;;;;;;;;;;;;;;;;4988002;28;5087;-49
2023/01/09 16:39:20;;;;;;;;;;;;;;;;;;4981175;28;5444;-47
2023/01/09 16:44:28;;;;;;;;;;;;;;;;;;4994288;28;5170;-50
2023/01/09 16:46:54;;;;;;;;;;;;;;;;;;4993273;28;3374;-50
2023/01/09 16:49:20;;;;;;;;;;;;;;;;;;4996029;28;5172;-49
2023/01/09 16:51:46;;;;;;;;;;;;;;;;;;4995306;28;4827;-49
2023/01/09 16:54:11;;;;;;;;;;;;;;;;;;4998180;28;5107;-49
2023/01/09 16:56:36;;;;;;;;;;;;;;;;;;4995666;28;5141;-49
2023/01/09 16:59:01;;;;;;;;;;;;;;;;;;4983811;28;3636;-50
2023/01/09 17:01:27;;;;;;;;;;;;;;;;;;5002152;28;4888;-51
2023/01/09 17:03:52;;;;;;;;;;;;;;;;;;5007091;28;4989;-50
2023/01/09 17:06:22;;;;;;;;;;;;;;;;;;5008432;28;4812;-48
2023/01/09 17:08:47;;;;;;;;;;;;;;;;;;4997237;28;5047;-50
2023/01/09 17:11:32;;;;;;;;;;;;;;;;;;4983180;28;1386;-51
2023/01/09 17:13:58;;;;;;;;;;;;;;;;;;5003084;28;4388;-49
2023/01/09 17:16:23;;;;;;;;;;;;;;;;;;5003935;28;5103;-50
2023/01/09 17:18:49;;;;;;;;;;;;;;;;;;5002997;28;4615;-48
2023/01/09 17:21:20;;;;;;;;;;;;;;;;;;4999297;28;4694;-50
2023/01/09 17:23:46;;;;;;;;;;;;;;;;;;5004199;28;5095;-52
2023/01/09 17:29:05;;;;;;;;;;;;;;;;;;4975544;28;4697;-49
2023/01/09 17:31:31;;;;;;;;;;;;;;;;;;5007238;28;4916;-51
2023/01/09 17:33:56;;;;;;;;;;;;;;;;;;5010020;28;4975;-48